首页
METAR-TAF:

METAR-TAF

机场 :

錫亞爾科特國際機場

锡亚尔科特, 巴基斯坦

纬度: 32-32N, 经度: 74-22E, 海拔: 255米

当前天气观测

该预报发布于23分钟前的01:00 UTC
静风
温度 33°C
湿度 36%
气压 999 hPa
能見度: 4000
霾,

METAR: OPST 170100Z 00000KT 4000 HZ NSC 33/16 Q0999 NOSIG RH37

时间: 06:23 (01:23 UTC)

预报

该预报发布于2小时和23分钟前的23:00 UTC
预报有效从17日的 00点(UTC)到 18日的 06点(UTC)
风速7节,风向西
能見度: 4000
少量云层高于10000英尺
短暂存在
从 17日的 09点(UTC)到 17日的 14点(UTC)
风速15节,风向西北,有时为35节阵风
能見度: 2000
散云层高于10000英尺
低吹尘
成为
从 17日的 20点(UTC)到 17日的 24点(UTC)
风速5节,风向西北
能見度: 4000
散云层高于10000英尺
霾,

TAF: OPST 162300Z 1700/1806 27007KT 4000 HZ FEW100 TX45/1710Z TN29/1700Z TEMPO 1709/1714 32015G35KT 2000 DRDU SCT100 BECMG 1720/1724 31005KT 4000 HZ SCT100

超过4000个机场的气象观测和天气预报(METAR&TAF报告)。

可查询的气象台以黄色和红色小点在地图上表示。

将鼠标移到小点上方,可查看气象台名称。

然后点击查看天气观测和预报。

如需切换地图:点击带黑十字的绿色按钮放大地图;点击带横线的绿色按钮缩小地图;或者点击绿色箭头查看邻近地区的地图。


METAR-TAF: